sensor_id;sensor_type;location;lat;lon;timestamp;P1;durP1;ratioP1;P2;durP2;ratioP2
20729;SDS011;10526;50.850;12.928;2023-03-15T00:00:56;20.17;;;3.50;;
20729;SDS011;10526;50.850;12.928;2023-03-15T00:05:20;20.13;;;3.38;;
20729;SDS011;10526;50.850;12.928;2023-03-15T00:09:43;19.75;;;3.22;;
20729;SDS011;10526;50.850;12.928;2023-03-15T00:14:05;21.20;;;3.40;;
20729;SDS011;10526;50.850;12.928;2023-03-15T00:18:27;10.13;;;2.70;;
20729;SDS011;10526;50.850;12.928;2023-03-15T00:22:49;11.82;;;2.63;;
20729;SDS011;10526;50.850;12.928;2023-03-15T00:27:11;21.48;;;3.17;;
20729;SDS011;10526;50.850;12.928;2023-03-15T00:31:33;15.10;;;2.60;;
20729;SDS011;10526;50.850;12.928;2023-03-15T00:35:56;16.65;;;3.47;;
20729;SDS011;10526;50.850;12.928;2023-03-15T00:40:18;14.98;;;3.03;;
20729;SDS011;10526;50.850;12.928;2023-03-15T00:44:41;13.23;;;2.90;;
20729;SDS011;10526;50.850;12.928;2023-03-15T00:49:03;17.35;;;3.50;;
20729;SDS011;10526;50.850;12.928;2023-03-15T00:53:25;18.30;;;3.15;;
20729;SDS011;10526;50.850;12.928;2023-03-15T00:57:47;14.35;;;2.88;;
20729;SDS011;10526;50.850;12.928;2023-03-15T01:02:10;22.20;;;3.70;;
20729;SDS011;10526;50.850;12.928;2023-03-15T01:06:32;19.52;;;3.75;;
20729;SDS011;10526;50.850;12.928;2023-03-15T01:10:54;15.00;;;3.30;;
20729;SDS011;10526;50.850;12.928;2023-03-15T01:15:16;13.82;;;2.33;;
20729;SDS011;10526;50.850;12.928;2023-03-15T01:19:38;19.58;;;3.33;;
20729;SDS011;10526;50.850;12.928;2023-03-15T01:24:01;16.20;;;2.97;;
20729;SDS011;10526;50.850;12.928;2023-03-15T01:28:23;14.48;;;2.47;;
20729;SDS011;10526;50.850;12.928;2023-03-15T01:32:45;17.23;;;2.97;;
20729;SDS011;10526;50.850;12.928;2023-03-15T01:37:08;12.77;;;3.40;;
20729;SDS011;10526;50.850;12.928;2023-03-15T01:41:37;12.70;;;3.40;;
20729;SDS011;10526;50.850;12.928;2023-03-15T01:50:38;13.40;;;3.35;;
20729;SDS011;10526;50.850;12.928;2023-03-15T01:55:06;14.23;;;2.55;;
20729;SDS011;10526;50.850;12.928;2023-03-15T01:59:49;13.23;;;2.60;;
20729;SDS011;10526;50.850;12.928;2023-03-15T02:04:17;11.90;;;2.42;;
20729;SDS011;10526;50.850;12.928;2023-03-15T02:09:00;19.60;;;3.40;;
20729;SDS011;10526;50.850;12.928;2023-03-15T02:13:31;11.20;;;2.53;;
20729;SDS011;10526;50.850;12.928;2023-03-15T02:17:59;10.93;;;2.58;;
20729;SDS011;10526;50.850;12.928;2023-03-15T02:27:08;11.98;;;2.53;;
20729;SDS011;10526;50.850;12.928;2023-03-15T02:31:30;18.27;;;2.67;;
20729;SDS011;10526;50.850;12.928;2023-03-15T02:40:40;14.30;;;3.22;;
20729;SDS011;10526;50.850;12.928;2023-03-15T02:45:03;14.93;;;2.95;;
20729;SDS011;10526;50.850;12.928;2023-03-15T02:49:26;10.93;;;2.03;;
20729;SDS011;10526;50.850;12.928;2023-03-15T02:53:53;14.32;;;2.20;;
20729;SDS011;10526;50.850;12.928;2023-03-15T02:58:15;13.05;;;2.72;;
20729;SDS011;10526;50.850;12.928;2023-03-15T03:02:37;14.00;;;2.85;;
20729;SDS011;10526;50.850;12.928;2023-03-15T03:07:04;9.55;;;2.55;;
20729;SDS011;10526;50.850;12.928;2023-03-15T03:11:35;13.65;;;2.80;;
20729;SDS011;10526;50.850;12.928;2023-03-15T03:15:58;17.48;;;3.03;;
20729;SDS011;10526;50.850;12.928;2023-03-15T03:20:23;17.42;;;3.10;;
20729;SDS011;10526;50.850;12.928;2023-03-15T03:24:46;23.67;;;4.05;;
20729;SDS011;10526;50.850;12.928;2023-03-15T03:29:09;17.67;;;3.95;;
20729;SDS011;10526;50.850;12.928;2023-03-15T03:33:31;12.82;;;3.28;;
20729;SDS011;10526;50.850;12.928;2023-03-15T03:37:53;11.10;;;3.25;;
20729;SDS011;10526;50.850;12.928;2023-03-15T03:42:21;18.52;;;3.20;;
20729;SDS011;10526;50.850;12.928;2023-03-15T03:46:44;13.23;;;3.00;;
20729;SDS011;10526;50.850;12.928;2023-03-15T03:51:07;22.45;;;3.83;;
20729;SDS011;10526;50.850;12.928;2023-03-15T03:55:29;13.57;;;3.10;;
20729;SDS011;10526;50.850;12.928;2023-03-15T03:59:54;15.35;;;3.00;;
20729;SDS011;10526;50.850;12.928;2023-03-15T04:04:19;12.65;;;2.78;;
20729;SDS011;10526;50.850;12.928;2023-03-15T04:08:42;14.77;;;2.95;;
20729;SDS011;10526;50.850;12.928;2023-03-15T04:13:08;18.02;;;3.00;;
20729;SDS011;10526;50.850;12.928;2023-03-15T04:17:31;23.05;;;3.35;;
20729;SDS011;10526;50.850;12.928;2023-03-15T04:21:53;13.40;;;2.80;;
20729;SDS011;10526;50.850;12.928;2023-03-15T04:26:38;20.40;;;3.08;;
20729;SDS011;10526;50.850;12.928;2023-03-15T04:31:24;17.30;;;3.47;;
20729;SDS011;10526;50.850;12.928;2023-03-15T04:35:59;18.38;;;4.15;;
20729;SDS011;10526;50.850;12.928;2023-03-15T04:40:52;12.73;;;2.88;;
20729;SDS011;10526;50.850;12.928;2023-03-15T04:45:33;15.73;;;2.92;;
20729;SDS011;10526;50.850;12.928;2023-03-15T04:50:34;14.55;;;3.00;;
20729;SDS011;10526;50.850;12.928;2023-03-15T04:55:14;20.08;;;3.15;;
20729;SDS011;10526;50.850;12.928;2023-03-15T04:59:51;17.70;;;3.70;;
20729;SDS011;10526;50.850;12.928;2023-03-15T05:04:32;9.88;;;3.00;;
20729;SDS011;10526;50.850;12.928;2023-03-15T05:09:13;14.68;;;3.25;;
20729;SDS011;10526;50.850;12.928;2023-03-15T05:13:58;16.38;;;3.58;;
20729;SDS011;10526;50.850;12.928;2023-03-15T05:18:39;14.88;;;3.63;;
20729;SDS011;10526;50.850;12.928;2023-03-15T05:23:14;13.30;;;2.65;;
20729;SDS011;10526;50.850;12.928;2023-03-15T05:27:56;19.13;;;3.05;;
20729;SDS011;10526;50.850;12.928;2023-03-15T05:32:42;20.85;;;2.95;;
20729;SDS011;10526;50.850;12.928;2023-03-15T05:37:05;12.02;;;3.25;;
20729;SDS011;10526;50.850;12.928;2023-03-15T05:41:45;17.25;;;2.72;;
20729;SDS011;10526;50.850;12.928;2023-03-15T05:46:26;17.60;;;2.45;;
20729;SDS011;10526;50.850;12.928;2023-03-15T05:51:02;16.38;;;2.78;;
20729;SDS011;10526;50.850;12.928;2023-03-15T05:55:50;15.07;;;2.40;;
20729;SDS011;10526;50.850;12.928;2023-03-15T06:00:31;14.48;;;2.78;;
20729;SDS011;10526;50.850;12.928;2023-03-15T06:04:59;11.13;;;2.38;;
20729;SDS011;10526;50.850;12.928;2023-03-15T06:09:21;16.23;;;2.60;;
20729;SDS011;10526;50.850;12.928;2023-03-15T06:13:44;19.05;;;3.25;;
20729;SDS011;10526;50.850;12.928;2023-03-15T06:18:18;12.48;;;3.28;;
20729;SDS011;10526;50.850;12.928;2023-03-15T06:22:42;10.82;;;2.60;;
20729;SDS011;10526;50.850;12.928;2023-03-15T06:27:17;10.30;;;2.65;;
20729;SDS011;10526;50.850;12.928;2023-03-15T06:31:44;12.43;;;2.63;;
20729;SDS011;10526;50.850;12.928;2023-03-15T06:36:08;11.40;;;2.63;;
20729;SDS011;10526;50.850;12.928;2023-03-15T06:40:33;15.95;;;2.55;;
20729;SDS011;10526;50.850;12.928;2023-03-15T06:44:55;12.50;;;2.40;;
20729;SDS011;10526;50.850;12.928;2023-03-15T06:49:17;12.32;;;2.88;;
20729;SDS011;10526;50.850;12.928;2023-03-15T06:53:39;14.07;;;2.97;;
20729;SDS011;10526;50.850;12.928;2023-03-15T06:58:01;10.65;;;2.88;;
20729;SDS011;10526;50.850;12.928;2023-03-15T07:02:23;15.85;;;3.38;;
20729;SDS011;10526;50.850;12.928;2023-03-15T07:06:46;11.48;;;3.35;;
20729;SDS011;10526;50.850;12.928;2023-03-15T07:11:08;13.55;;;3.13;;
20729;SDS011;10526;50.850;12.928;2023-03-15T07:15:30;10.68;;;2.88;;
20729;SDS011;10526;50.850;12.928;2023-03-15T07:19:52;11.60;;;2.78;;
20729;SDS011;10526;50.850;12.928;2023-03-15T07:24:17;14.45;;;2.65;;
20729;SDS011;10526;50.850;12.928;2023-03-15T07:28:39;16.33;;;2.95;;
20729;SDS011;10526;50.850;12.928;2023-03-15T07:33:01;12.65;;;2.75;;
20729;SDS011;10526;50.850;12.928;2023-03-15T07:37:22;13.63;;;3.20;;
20729;SDS011;10526;50.850;12.928;2023-03-15T07:41:45;14.82;;;3.20;;
20729;SDS011;10526;50.850;12.928;2023-03-15T07:46:14;7.82;;;2.35;;
20729;SDS011;10526;50.850;12.928;2023-03-15T07:50:36;14.80;;;2.65;;
20729;SDS011;10526;50.850;12.928;2023-03-15T07:54:57;9.82;;;2.40;;
20729;SDS011;10526;50.850;12.928;2023-03-15T07:59:20;10.80;;;2.78;;
20729;SDS011;10526;50.850;12.928;2023-03-15T08:03:42;11.88;;;2.85;;
20729;SDS011;10526;50.850;12.928;2023-03-15T08:08:04;12.85;;;2.40;;
20729;SDS011;10526;50.850;12.928;2023-03-15T08:12:27;11.10;;;2.20;;
20729;SDS011;10526;50.850;12.928;2023-03-15T08:16:50;10.45;;;2.38;;
20729;SDS011;10526;50.850;12.928;2023-03-15T08:21:12;12.27;;;2.97;;
20729;SDS011;10526;50.850;12.928;2023-03-15T08:25:34;12.98;;;2.50;;
20729;SDS011;10526;50.850;12.928;2023-03-15T08:30:01;13.10;;;2.88;;
20729;SDS011;10526;50.850;12.928;2023-03-15T08:34:24;12.13;;;2.20;;
20729;SDS011;10526;50.850;12.928;2023-03-15T08:38:47;12.52;;;3.08;;
20729;SDS011;10526;50.850;12.928;2023-03-15T08:43:09;15.93;;;3.03;;
20729;SDS011;10526;50.850;12.928;2023-03-15T08:47:32;12.68;;;2.83;;
20729;SDS011;10526;50.850;12.928;2023-03-15T08:51:57;14.95;;;2.65;;
20729;SDS011;10526;50.850;12.928;2023-03-15T08:56:20;14.57;;;3.65;;
20729;SDS011;10526;50.850;12.928;2023-03-15T09:00:42;12.50;;;2.97;;
20729;SDS011;10526;50.850;12.928;2023-03-15T09:05:04;21.85;;;3.95;;
20729;SDS011;10526;50.850;12.928;2023-03-15T09:09:27;12.10;;;3.08;;
20729;SDS011;10526;50.850;12.928;2023-03-15T09:13:49;14.23;;;3.83;;
20729;SDS011;10526;50.850;12.928;2023-03-15T09:18:11;15.07;;;3.10;;
20729;SDS011;10526;50.850;12.928;2023-03-15T09:22:33;13.23;;;2.75;;
20729;SDS011;10526;50.850;12.928;2023-03-15T09:26:59;15.20;;;3.35;;
20729;SDS011;10526;50.850;12.928;2023-03-15T09:31:22;8.93;;;3.00;;
20729;SDS011;10526;50.850;12.928;2023-03-15T09:35:45;9.88;;;3.22;;
20729;SDS011;10526;50.850;12.928;2023-03-15T09:40:11;15.55;;;3.40;;
20729;SDS011;10526;50.850;12.928;2023-03-15T09:44:51;14.90;;;3.05;;
20729;SDS011;10526;50.850;12.928;2023-03-15T09:49:51;13.43;;;3.28;;
20729;SDS011;10526;50.850;12.928;2023-03-15T09:54:38;8.68;;;2.83;;
20729;SDS011;10526;50.850;12.928;2023-03-15T09:59:12;16.13;;;3.60;;
20729;SDS011;10526;50.850;12.928;2023-03-15T10:03:41;11.48;;;3.28;;
20729;SDS011;10526;50.850;12.928;2023-03-15T10:08:13;11.45;;;3.22;;
20729;SDS011;10526;50.850;12.928;2023-03-15T10:12:37;14.13;;;3.30;;
20729;SDS011;10526;50.850;12.928;2023-03-15T10:17:07;13.45;;;3.50;;
20729;SDS011;10526;50.850;12.928;2023-03-15T10:21:37;11.73;;;3.42;;
20729;SDS011;10526;50.850;12.928;2023-03-15T10:26:13;12.50;;;2.65;;
20729;SDS011;10526;50.850;12.928;2023-03-15T10:30:45;13.13;;;2.75;;
20729;SDS011;10526;50.850;12.928;2023-03-15T10:35:16;8.30;;;2.45;;
20729;SDS011;10526;50.850;12.928;2023-03-15T10:39:42;12.93;;;2.60;;
20729;SDS011;10526;50.850;12.928;2023-03-15T10:44:12;8.13;;;2.67;;
20729;SDS011;10526;50.850;12.928;2023-03-15T10:48:59;9.63;;;3.30;;
20729;SDS011;10526;50.850;12.928;2023-03-15T10:53:35;9.85;;;2.53;;
20729;SDS011;10526;50.850;12.928;2023-03-15T10:57:58;12.20;;;3.22;;
20729;SDS011;10526;50.850;12.928;2023-03-15T11:02:41;13.10;;;3.17;;
20729;SDS011;10526;50.850;12.928;2023-03-15T11:07:21;6.93;;;2.30;;
20729;SDS011;10526;50.850;12.928;2023-03-15T11:11:48;16.48;;;8.15;;
20729;SDS011;10526;50.850;12.928;2023-03-15T11:16:20;9.75;;;2.60;;
20729;SDS011;10526;50.850;12.928;2023-03-15T11:20:42;10.75;;;2.95;;
20729;SDS011;10526;50.850;12.928;2023-03-15T11:25:16;9.00;;;2.30;;
20729;SDS011;10526;50.850;12.928;2023-03-15T11:29:39;13.55;;;3.10;;
20729;SDS011;10526;50.850;12.928;2023-03-15T11:34:14;12.27;;;2.88;;
20729;SDS011;10526;50.850;12.928;2023-03-15T11:38:53;7.70;;;2.60;;
20729;SDS011;10526;50.850;12.928;2023-03-15T11:48:00;8.35;;;2.70;;
20729;SDS011;10526;50.850;12.928;2023-03-15T11:52:33;8.18;;;2.30;;
20729;SDS011;10526;50.850;12.928;2023-03-15T11:56:56;7.57;;;2.08;;
20729;SDS011;10526;50.850;12.928;2023-03-15T12:01:49;7.13;;;2.00;;
20729;SDS011;10526;50.850;12.928;2023-03-15T12:06:34;7.20;;;2.33;;
20729;SDS011;10526;50.850;12.928;2023-03-15T12:10:58;10.68;;;2.25;;
20729;SDS011;10526;50.850;12.928;2023-03-15T12:24:35;6.32;;;2.40;;
20729;SDS011;10526;50.850;12.928;2023-03-15T12:33:21;6.93;;;2.10;;
20729;SDS011;10526;50.850;12.928;2023-03-15T12:37:45;5.68;;;1.88;;
20729;SDS011;10526;50.850;12.928;2023-03-15T12:51:15;4.15;;;2.00;;
20729;SDS011;10526;50.850;12.928;2023-03-15T13:01:04;5.97;;;2.58;;
20729;SDS011;10526;50.850;12.928;2023-03-15T13:16:02;10.38;;;3.63;;
20729;SDS011;10526;50.850;12.928;2023-03-15T13:21:19;5.55;;;2.92;;
20729;SDS011;10526;50.850;12.928;2023-03-15T13:30:51;8.32;;;3.38;;
20729;SDS011;10526;50.850;12.928;2023-03-15T13:35:15;7.05;;;3.15;;
20729;SDS011;10526;50.850;12.928;2023-03-15T13:39:38;5.93;;;2.90;;
20729;SDS011;10526;50.850;12.928;2023-03-15T13:44:15;6.15;;;2.72;;
20729;SDS011;10526;50.850;12.928;2023-03-15T13:48:42;7.22;;;2.90;;
20729;SDS011;10526;50.850;12.928;2023-03-15T13:53:06;5.28;;;3.00;;
20729;SDS011;10526;50.850;12.928;2023-03-15T13:57:34;7.07;;;2.92;;
20729;SDS011;10526;50.850;12.928;2023-03-15T14:01:57;6.38;;;2.85;;
20729;SDS011;10526;50.850;12.928;2023-03-15T14:06:23;5.57;;;2.65;;
20729;SDS011;10526;50.850;12.928;2023-03-15T14:11:03;11.32;;;3.30;;
20729;SDS011;10526;50.850;12.928;2023-03-15T14:15:43;8.60;;;3.35;;
20729;SDS011;10526;50.850;12.928;2023-03-15T14:20:07;7.93;;;3.67;;
20729;SDS011;10526;50.850;12.928;2023-03-15T14:24:40;7.65;;;3.50;;
20729;SDS011;10526;50.850;12.928;2023-03-15T14:29:06;9.73;;;3.75;;
20729;SDS011;10526;50.850;12.928;2023-03-15T14:33:38;10.27;;;3.55;;
20729;SDS011;10526;50.850;12.928;2023-03-15T14:38:14;10.80;;;3.80;;
20729;SDS011;10526;50.850;12.928;2023-03-15T14:42:40;9.00;;;3.50;;
20729;SDS011;10526;50.850;12.928;2023-03-15T14:47:13;9.73;;;3.30;;
20729;SDS011;10526;50.850;12.928;2023-03-15T14:51:36;10.55;;;3.67;;
20729;SDS011;10526;50.850;12.928;2023-03-15T14:55:58;10.77;;;3.80;;
20729;SDS011;10526;50.850;12.928;2023-03-15T15:00:20;7.47;;;3.25;;
20729;SDS011;10526;50.850;12.928;2023-03-15T15:04:43;9.30;;;3.70;;
20729;SDS011;10526;50.850;12.928;2023-03-15T15:09:08;12.57;;;4.05;;
20729;SDS011;10526;50.850;12.928;2023-03-15T15:13:31;13.02;;;4.15;;
20729;SDS011;10526;50.850;12.928;2023-03-15T15:17:53;10.38;;;4.05;;
20729;SDS011;10526;50.850;12.928;2023-03-15T15:22:15;11.90;;;3.83;;
20729;SDS011;10526;50.850;12.928;2023-03-15T15:26:43;10.43;;;3.63;;
20729;SDS011;10526;50.850;12.928;2023-03-15T15:31:09;7.57;;;3.22;;
20729;SDS011;10526;50.850;12.928;2023-03-15T15:35:36;6.65;;;3.08;;
20729;SDS011;10526;50.850;12.928;2023-03-15T15:39:59;6.03;;;3.05;;
20729;SDS011;10526;50.850;12.928;2023-03-15T15:44:21;6.60;;;3.15;;
20729;SDS011;10526;50.850;12.928;2023-03-15T15:48:45;12.80;;;4.75;;
20729;SDS011;10526;50.850;12.928;2023-03-15T15:53:09;8.77;;;3.30;;
20729;SDS011;10526;50.850;12.928;2023-03-15T15:57:37;6.30;;;1.88;;
20729;SDS011;10526;50.850;12.928;2023-03-15T16:01:59;9.13;;;2.38;;
20729;SDS011;10526;50.850;12.928;2023-03-15T16:06:23;5.38;;;1.85;;
20729;SDS011;10526;50.850;12.928;2023-03-15T16:10:45;9.32;;;2.28;;
20729;SDS011;10526;50.850;12.928;2023-03-15T16:15:09;8.60;;;2.67;;
20729;SDS011;10526;50.850;12.928;2023-03-15T16:19:34;7.22;;;2.15;;
20729;SDS011;10526;50.850;12.928;2023-03-15T16:23:57;3.72;;;1.90;;
20729;SDS011;10526;50.850;12.928;2023-03-15T16:28:39;10.18;;;2.65;;
20729;SDS011;10526;50.850;12.928;2023-03-15T16:33:02;11.90;;;3.30;;
20729;SDS011;10526;50.850;12.928;2023-03-15T16:37:34;11.30;;;3.90;;
20729;SDS011;10526;50.850;12.928;2023-03-15T16:41:56;11.85;;;3.85;;
20729;SDS011;10526;50.850;12.928;2023-03-15T16:46:19;35.80;;;17.35;;
20729;SDS011;10526;50.850;12.928;2023-03-15T16:50:41;11.57;;;4.88;;
20729;SDS011;10526;50.850;12.928;2023-03-15T16:55:04;10.93;;;4.38;;
20729;SDS011;10526;50.850;12.928;2023-03-15T16:59:27;9.27;;;3.75;;
20729;SDS011;10526;50.850;12.928;2023-03-15T17:03:50;9.27;;;4.57;;
20729;SDS011;10526;50.850;12.928;2023-03-15T17:08:14;13.48;;;5.28;;
20729;SDS011;10526;50.850;12.928;2023-03-15T17:12:39;11.75;;;4.78;;
20729;SDS011;10526;50.850;12.928;2023-03-15T17:17:02;12.70;;;5.15;;
20729;SDS011;10526;50.850;12.928;2023-03-15T17:21:24;14.05;;;5.78;;
20729;SDS011;10526;50.850;12.928;2023-03-15T17:25:47;21.38;;;8.63;;
20729;SDS011;10526;50.850;12.928;2023-03-15T17:34:35;19.60;;;9.00;;
20729;SDS011;10526;50.850;12.928;2023-03-15T17:38:57;26.10;;;9.80;;
20729;SDS011;10526;50.850;12.928;2023-03-15T17:43:19;16.25;;;7.05;;
20729;SDS011;10526;50.850;12.928;2023-03-15T17:47:41;25.38;;;11.32;;
20729;SDS011;10526;50.850;12.928;2023-03-15T17:52:04;16.85;;;6.75;;
20729;SDS011;10526;50.850;12.928;2023-03-15T17:56:35;18.77;;;8.88;;
20729;SDS011;10526;50.850;12.928;2023-03-15T18:00:57;17.80;;;8.45;;
20729;SDS011;10526;50.850;12.928;2023-03-15T18:05:22;19.17;;;9.13;;
20729;SDS011;10526;50.850;12.928;2023-03-15T18:09:46;19.52;;;8.50;;
20729;SDS011;10526;50.850;12.928;2023-03-15T18:14:12;19.02;;;9.07;;
20729;SDS011;10526;50.850;12.928;2023-03-15T18:18:36;19.33;;;9.05;;
20729;SDS011;10526;50.850;12.928;2023-03-15T18:22:58;18.52;;;9.48;;
20729;SDS011;10526;50.850;12.928;2023-03-15T18:27:20;23.23;;;9.48;;
20729;SDS011;10526;50.850;12.928;2023-03-15T18:31:42;21.73;;;9.27;;
20729;SDS011;10526;50.850;12.928;2023-03-15T18:36:04;21.70;;;10.57;;
20729;SDS011;10526;50.850;12.928;2023-03-15T18:40:28;22.80;;;8.90;;
20729;SDS011;10526;50.850;12.928;2023-03-15T18:44:51;19.90;;;9.63;;
20729;SDS011;10526;50.850;12.928;2023-03-15T18:49:14;19.45;;;10.40;;
20729;SDS011;10526;50.850;12.928;2023-03-15T18:53:36;21.13;;;9.73;;
20729;SDS011;10526;50.850;12.928;2023-03-15T18:57:59;22.45;;;11.10;;
20729;SDS011;10526;50.850;12.928;2023-03-15T19:02:21;21.40;;;11.07;;
20729;SDS011;10526;50.850;12.928;2023-03-15T19:06:43;22.95;;;11.40;;
20729;SDS011;10526;50.850;12.928;2023-03-15T19:11:06;24.08;;;11.23;;
20729;SDS011;10526;50.850;12.928;2023-03-15T19:15:30;22.77;;;10.90;;
20729;SDS011;10526;50.850;12.928;2023-03-15T19:19:52;25.67;;;10.80;;
20729;SDS011;10526;50.850;12.928;2023-03-15T19:24:14;22.60;;;10.52;;
20729;SDS011;10526;50.850;12.928;2023-03-15T19:28:36;22.75;;;8.77;;
20729;SDS011;10526;50.850;12.928;2023-03-15T19:32:58;20.08;;;8.65;;
20729;SDS011;10526;50.850;12.928;2023-03-15T19:37:21;22.25;;;10.27;;
20729;SDS011;10526;50.850;12.928;2023-03-15T19:41:44;19.65;;;8.68;;
20729;SDS011;10526;50.850;12.928;2023-03-15T19:46:07;23.55;;;9.20;;
20729;SDS011;10526;50.850;12.928;2023-03-15T19:50:30;20.05;;;8.40;;
20729;SDS011;10526;50.850;12.928;2023-03-15T19:54:54;21.17;;;8.05;;
20729;SDS011;10526;50.850;12.928;2023-03-15T19:59:16;15.75;;;6.28;;
20729;SDS011;10526;50.850;12.928;2023-03-15T20:03:38;17.10;;;6.97;;
20729;SDS011;10526;50.850;12.928;2023-03-15T20:08:00;21.83;;;6.53;;
20729;SDS011;10526;50.850;12.928;2023-03-15T20:12:22;23.50;;;7.45;;
20729;SDS011;10526;50.850;12.928;2023-03-15T20:16:45;21.33;;;6.97;;
20729;SDS011;10526;50.850;12.928;2023-03-15T20:21:07;15.95;;;6.63;;
20729;SDS011;10526;50.850;12.928;2023-03-15T20:25:29;16.15;;;7.68;;
20729;SDS011;10526;50.850;12.928;2023-03-15T20:29:51;20.02;;;7.78;;
20729;SDS011;10526;50.850;12.928;2023-03-15T20:34:16;20.75;;;9.60;;
20729;SDS011;10526;50.850;12.928;2023-03-15T20:38:39;29.42;;;8.77;;
20729;SDS011;10526;50.850;12.928;2023-03-15T20:43:02;16.83;;;8.45;;
20729;SDS011;10526;50.850;12.928;2023-03-15T20:47:25;17.77;;;7.63;;
20729;SDS011;10526;50.850;12.928;2023-03-15T20:51:47;24.20;;;9.50;;
20729;SDS011;10526;50.850;12.928;2023-03-15T20:56:11;21.02;;;9.15;;
20729;SDS011;10526;50.850;12.928;2023-03-15T21:00:33;23.75;;;9.98;;
20729;SDS011;10526;50.850;12.928;2023-03-15T21:04:56;21.38;;;9.57;;
20729;SDS011;10526;50.850;12.928;2023-03-15T21:09:18;22.00;;;9.20;;
20729;SDS011;10526;50.850;12.928;2023-03-15T21:13:40;21.85;;;9.77;;
20729;SDS011;10526;50.850;12.928;2023-03-15T21:18:02;21.48;;;9.93;;
20729;SDS011;10526;50.850;12.928;2023-03-15T21:22:24;19.67;;;9.27;;
20729;SDS011;10526;50.850;12.928;2023-03-15T21:26:46;22.90;;;9.98;;
20729;SDS011;10526;50.850;12.928;2023-03-15T21:31:14;20.60;;;10.50;;
20729;SDS011;10526;50.850;12.928;2023-03-15T21:35:36;22.80;;;10.55;;
20729;SDS011;10526;50.850;12.928;2023-03-15T21:39:58;22.20;;;10.85;;
20729;SDS011;10526;50.850;12.928;2023-03-15T21:44:20;24.17;;;9.70;;
20729;SDS011;10526;50.850;12.928;2023-03-15T21:48:42;32.65;;;14.40;;
20729;SDS011;10526;50.850;12.928;2023-03-15T21:53:04;27.60;;;13.63;;
20729;SDS011;10526;50.850;12.928;2023-03-15T21:57:26;31.00;;;14.90;;
20729;SDS011;10526;50.850;12.928;2023-03-15T22:01:49;24.25;;;11.00;;
20729;SDS011;10526;50.850;12.928;2023-03-15T22:06:11;26.50;;;10.70;;
20729;SDS011;10526;50.850;12.928;2023-03-15T22:10:33;22.42;;;10.70;;
20729;SDS011;10526;50.850;12.928;2023-03-15T22:14:55;24.70;;;11.50;;
20729;SDS011;10526;50.850;12.928;2023-03-15T22:19:25;23.92;;;12.30;;
20729;SDS011;10526;50.850;12.928;2023-03-15T22:23:47;25.15;;;10.93;;
20729;SDS011;10526;50.850;12.928;2023-03-15T22:28:09;23.60;;;10.95;;
20729;SDS011;10526;50.850;12.928;2023-03-15T22:32:31;23.83;;;10.80;;
20729;SDS011;10526;50.850;12.928;2023-03-15T22:36:53;25.63;;;12.30;;
20729;SDS011;10526;50.850;12.928;2023-03-15T22:41:16;21.42;;;11.32;;
20729;SDS011;10526;50.850;12.928;2023-03-15T22:45:39;23.58;;;11.82;;
20729;SDS011;10526;50.850;12.928;2023-03-15T22:50:01;26.60;;;12.70;;
20729;SDS011;10526;50.850;12.928;2023-03-15T22:54:23;28.35;;;12.05;;
20729;SDS011;10526;50.850;12.928;2023-03-15T22:58:45;25.20;;;11.55;;
20729;SDS011;10526;50.850;12.928;2023-03-15T23:03:07;24.30;;;11.75;;
20729;SDS011;10526;50.850;12.928;2023-03-15T23:07:29;21.35;;;11.15;;
20729;SDS011;10526;50.850;12.928;2023-03-15T23:11:51;24.05;;;11.52;;
20729;SDS011;10526;50.850;12.928;2023-03-15T23:16:14;22.13;;;12.02;;
20729;SDS011;10526;50.850;12.928;2023-03-15T23:20:37;35.75;;;14.23;;
20729;SDS011;10526;50.850;12.928;2023-03-15T23:25:01;25.98;;;13.00;;
20729;SDS011;10526;50.850;12.928;2023-03-15T23:29:23;29.98;;;13.70;;
20729;SDS011;10526;50.850;12.928;2023-03-15T23:33:45;24.63;;;12.60;;
20729;SDS011;10526;50.850;12.928;2023-03-15T23:38:07;22.55;;;12.52;;
20729;SDS011;10526;50.850;12.928;2023-03-15T23:42:29;27.48;;;13.00;;
20729;SDS011;10526;50.850;12.928;2023-03-15T23:46:52;22.52;;;12.48;;
20729;SDS011;10526;50.850;12.928;2023-03-15T23:51:15;25.33;;;12.43;;
20729;SDS011;10526;50.850;12.928;2023-03-15T23:55:37;23.50;;;11.68;;
20729;SDS011;10526;50.850;12.928;2023-03-15T23:59:59;22.52;;;11.35;;
